Time;durP1;ratioP1;P1;durP2;ratioP2;P2;SDS_P1;SDS_P2;PMS_P1;PMS_P2;Temp;Humidity;BMP_temperature;BMP_pressure;BME280_temperature;BME280_humidity;BME280_pressure;Samples;Min_cycle;Max_cycle;Signal;HPM_P1;HPM_P2
2021/05/29 01:48:22;;;;;;;4.60;4.13;;;10.50;93.50;;;;;;5107476;28;20254;-87
2021/05/29 01:50:49;;;;;;;5.95;3.95;;;10.50;93.40;;;;;;5110407;28;20274;-88
2021/05/29 01:53:17;;;;;;;4.38;3.97;;;10.60;93.50;;;;;;5103682;28;20239;-87
2021/05/29 01:55:44;;;;;;;5.78;4.65;;;10.60;93.40;;;;;;5101867;28;20264;-88
2021/05/29 01:58:11;;;;;;;4.85;4.32;;;10.50;93.20;;;;;;5109777;28;20536;-88
2021/05/29 02:00:38;;;;;;;7.57;4.80;;;10.50;93.20;;;;;;5110109;28;20226;-87
2021/05/29 02:03:04;;;;;;;5.00;4.13;;;10.50;93.40;;;;;;5100412;28;20225;-90
2021/05/29 02:05:33;;;;;;;4.68;4.22;;;10.40;93.50;;;;;;5083375;28;20192;-90
2021/05/29 02:08:02;;;;;;;5.10;4.45;;;10.40;93.50;;;;;;5091244;27;20199;-90
2021/05/29 02:10:30;;;;;;;6.22;4.68;;;10.30;93.70;;;;;;5084614;28;20224;-92
2021/05/29 02:12:58;;;;;;;6.05;4.72;;;10.30;93.70;;;;;;5092578;28;20210;-90
2021/05/29 02:16:08;;;;;;;7.65;4.45;;;10.30;93.80;;;;;;5087098;28;20280;-90
2021/05/29 02:18:35;;;;;;;5.90;4.57;;;10.30;94.00;;;;;;5093709;28;20225;-88
2021/05/29 02:21:04;;;;;;;6.75;5.22;;;10.30;94.10;;;;;;5088519;28;20236;-88
2021/05/29 02:23:33;;;;;;;7.22;4.90;;;10.30;94.00;;;;;;5088244;28;20285;-89
2021/05/29 02:26:03;;;;;;;7.80;5.05;;;10.30;94.10;;;;;;5118348;28;20192;-89
2021/05/29 02:28:29;;;;;;;6.20;4.82;;;10.20;94.30;;;;;;5108982;28;20230;-89
2021/05/29 02:30:56;;;;;;;5.82;4.93;;;10.20;94.50;;;;;;5108414;28;20208;-89
2021/05/29 02:33:23;;;;;;;7.40;5.10;;;10.20;94.70;;;;;;5108615;27;20253;-88
2021/05/29 02:35:50;;;;;;;4.95;4.43;;;10.20;94.90;;;;;;5108169;28;20185;-88
2021/05/29 02:38:38;;;;;;;6.22;5.15;;;10.20;94.80;;;;;;5097365;28;20236;-88
2021/05/29 02:41:07;;;;;;;6.18;5.50;;;10.10;94.80;;;;;;5088884;28;20197;-89
2021/05/29 02:43:34;;;;;;;7.72;5.85;;;10.10;95.00;;;;;;5092056;28;20257;-88
2021/05/29 02:46:27;;;;;;;5.78;4.90;;;10.10;94.90;;;;;;5088956;28;20211;-89
2021/05/29 02:48:53;;;;;;;5.07;4.38;;;10.10;94.90;;;;;;5088392;28;20262;-89
2021/05/29 02:51:19;;;;;;;5.60;5.00;;;10.10;95.00;;;;;;5108384;28;20191;-89
2021/05/29 02:58:57;;;;;;;6.43;5.10;;;10.20;94.90;;;;;;5154541;23;20232;-88
2021/05/29 03:01:24;;;;;;;6.10;5.30;;;10.10;95.10;;;;;;5112409;28;20212;-88
2021/05/29 03:03:50;;;;;;;5.93;4.60;;;10.00;95.00;;;;;;5110216;28;20224;-88
2021/05/29 03:06:17;;;;;;;5.88;5.30;;;10.00;95.30;;;;;;5092139;28;20194;-88
2021/05/29 03:08:43;;;;;;;5.20;4.70;;;10.00;95.50;;;;;;5091500;28;20265;-89
2021/05/29 03:11:11;;;;;;;6.28;5.30;;;10.00;95.60;;;;;;5092277;28;20188;-88
2021/05/29 03:13:37;;;;;;;6.03;5.38;;;10.00;95.60;;;;;;5096807;28;20201;-88
2021/05/29 03:16:05;;;;;;;6.85;5.38;;;10.10;95.40;;;;;;5092504;28;20223;-88
2021/05/29 03:18:32;;;;;;;7.10;5.28;;;10.00;95.40;;;;;;5093667;28;20201;-88
2021/05/29 03:21:03;;;;;;;5.95;5.25;;;10.00;95.70;;;;;;5092594;28;20258;-88
2021/05/29 03:23:30;;;;;;;6.70;5.68;;;10.00;95.70;;;;;;5090681;28;20239;-88
2021/05/29 03:25:56;;;;;;;6.10;5.38;;;10.00;95.70;;;;;;5092160;28;20193;-88
2021/05/29 03:28:23;;;;;;;6.47;5.38;;;10.00;95.70;;;;;;5095685;28;20224;-88
2021/05/29 03:31:33;;;;;;;7.10;5.85;;;10.10;95.70;;;;;;5106356;28;20279;-88
2021/05/29 03:34:00;;;;;;;6.40;5.45;;;10.10;95.60;;;;;;5092912;27;20269;-88
2021/05/29 03:36:29;;;;;;;6.88;5.63;;;10.00;95.30;;;;;;5091387;28;20223;-88
2021/05/29 03:38:55;;;;;;;6.28;5.68;;;10.10;95.40;;;;;;5092270;28;20657;-88
2021/05/29 03:41:41;;;;;;;6.03;5.05;;;10.20;95.60;;;;;;5092562;28;20209;-88
2021/05/29 03:44:07;;;;;;;8.70;5.95;;;10.20;95.50;;;;;;5094216;27;20201;-88
2021/05/29 03:46:34;;;;;;;6.88;5.40;;;10.20;95.50;;;;;;5092152;28;20193;-90
2021/05/29 03:49:24;;;;;;;6.05;5.15;;;10.20;95.70;;;;;;5091101;28;20262;-88
2021/05/29 03:51:50;;;;;;;6.32;5.72;;;10.20;95.50;;;;;;5091987;28;20197;-89
2021/05/29 04:40:54;;;;;;;4.97;4.47;;;11.10;91.30;;;;;;5070754;22;20764;-88
2021/05/29 04:43:21;;;;;;;5.70;4.57;;;11.10;90.90;;;;;;5008404;28;20247;-88
2021/05/29 04:45:48;;;;;;;4.47;3.90;;;11.20;90.60;;;;;;5022520;28;20222;-88
2021/05/29 04:48:17;;;;;;;4.93;4.43;;;11.10;90.50;;;;;;5063922;28;20228;-88
2021/05/29 04:53:30;;;;;;;5.35;4.40;;;11.20;90.60;;;;;;5058465;28;20642;-88
2021/05/29 04:55:58;;;;;;;5.80;3.92;;;11.40;90.00;;;;;;5009746;28;20211;-88
2021/05/29 04:58:24;;;;;;;4.72;4.28;;;11.30;89.30;;;;;;5006379;28;20234;-88
2021/05/29 05:00:51;;;;;;;5.47;4.10;;;11.40;89.60;;;;;;5011809;28;20203;-88
2021/05/29 05:03:18;;;;;;;6.22;4.05;;;11.50;89.30;;;;;;5015076;28;20228;-88
2021/05/29 05:05:44;;;;;;;4.28;3.88;;;11.50;88.20;;;;;;5082183;28;20211;-88
2021/05/29 05:08:11;;;;;;;5.05;4.07;;;11.50;87.30;;;;;;5016867;28;20235;-88
2021/05/29 05:10:37;;;;;;;4.55;4.05;;;11.40;86.50;;;;;;5007457;28;20200;-88
2021/05/29 05:13:04;;;;;;;4.80;4.40;;;11.40;87.10;;;;;;5006814;28;20232;-88
2021/05/29 05:15:31;;;;;;;5.97;4.05;;;11.40;86.70;;;;;;5035881;28;20543;-88
2021/05/29 05:17:57;;;;;;;5.80;4.15;;;11.40;87.00;;;;;;5035795;28;20708;-88
2021/05/29 05:20:24;;;;;;;4.40;4.00;;;11.50;85.40;;;;;;5049882;28;20207;-88
2021/05/29 05:22:50;;;;;;;5.70;3.70;;;11.60;83.00;;;;;;5014449;28;20282;-87
2021/05/29 05:25:17;;;;;;;5.88;4.22;;;11.80;83.70;;;;;;5047989;28;20715;-88
2021/05/29 05:27:44;;;;;;;5.03;4.35;;;11.80;82.90;;;;;;5005899;28;20238;-89
2021/05/29 05:30:14;;;;;;;4.70;4.20;;;11.90;82.50;;;;;;5007471;28;20262;-88
2021/05/29 05:49:51;;;;;;;6.97;4.10;;;12.70;75.60;;;;;;5051549;28;20261;-89
2021/05/29 05:52:24;;;;;;;5.50;4.10;;;13.10;75.90;;;;;;5037691;28;20208;-89
2021/05/29 05:54:50;;;;;;;5.63;4.13;;;13.30;76.00;;;;;;5018373;28;20236;-89
2021/05/29 05:57:16;;;;;;;4.32;3.92;;;13.40;74.10;;;;;;5006737;28;20211;-89
2021/05/29 05:59:43;;;;;;;5.18;4.07;;;13.40;71.40;;;;;;5006773;28;20235;-89
2021/05/29 06:02:09;;;;;;;4.10;3.70;;;13.50;70.80;;;;;;5078153;28;20232;-89
2021/05/29 06:04:39;;;;;;;5.20;3.72;;;13.60;70.70;;;;;;5005495;28;20224;-89
2021/05/29 06:09:54;;;;;;;4.88;3.50;;;13.20;66.20;;;;;;5053718;28;20231;-89
2021/05/29 06:12:21;;;;;;;4.03;3.50;;;13.40;68.00;;;;;;5025977;28;20203;-88
2021/05/29 06:20:22;;;;;;;5.90;3.60;;;13.40;65.50;;;;;;5019640;28;20210;-88
2021/05/29 06:22:50;;;;;;;5.43;3.47;;;13.50;65.20;;;;;;5027937;28;20272;-88
2021/05/29 06:25:16;;;;;;;4.63;3.28;;;13.50;64.60;;;;;;5018526;28;20344;-88
2021/05/29 06:27:43;;;;;;;7.25;4.40;;;13.60;64.00;;;;;;5041459;28;20426;-89
2021/05/29 06:30:14;;;;;;;5.68;3.42;;;13.60;65.60;;;;;;5008987;28;20302;-88
2021/05/29 06:38:58;;;;;;;5.00;3.42;;;13.60;61.50;;;;;;5013791;28;20214;-88
2021/05/29 06:51:51;;;;;;;3.78;2.97;;;14.00;60.90;;;;;;4880472;29;20212;-89
2021/05/29 06:54:23;;;;;;;3.05;2.75;;;14.20;57.80;;;;;;4998949;28;20235;-88
2021/05/29 06:59:34;;;;;;;3.67;3.22;;;14.90;55.30;;;;;;5003285;28;20284;-90
2021/05/29 07:02:01;;;;;;;4.60;3.05;;;14.50;53.30;;;;;;5005511;28;20227;-89
2021/05/29 07:04:27;;;;;;;3.65;2.85;;;14.80;51.20;;;;;;5013564;28;20224;-89
2021/05/29 07:06:53;;;;;;;3.30;3.00;;;14.70;51.50;;;;;;4992513;28;20204;-89
2021/05/29 07:09:21;;;;;;;3.50;2.78;;;15.10;52.60;;;;;;5017502;28;20227;-90
2021/05/29 07:11:47;;;;;;;5.18;3.10;;;15.20;51.50;;;;;;5004138;28;20208;-89
2021/05/29 07:14:14;;;;;;;3.00;2.70;;;15.60;49.40;;;;;;5011282;28;20246;-89
2021/05/29 07:16:42;;;;;;;4.63;2.65;;;15.70;51.10;;;;;;5007444;28;20201;-91
2021/05/29 07:19:09;;;;;;;3.83;2.65;;;16.10;48.30;;;;;;5011747;28;20228;-89
2021/05/29 07:21:38;;;;;;;3.03;2.70;;;16.70;46.40;;;;;;4994810;28;20200;-90
2021/05/29 07:24:13;;;;;;;3.72;2.80;;;16.40;44.20;;;;;;5066376;28;20730;-92
2021/05/29 07:26:44;;;;;;;3.08;2.60;;;16.70;46.30;;;;;;5060675;28;20203;-89
2021/05/29 07:29:11;;;;;;;4.78;2.55;;;16.80;41.30;;;;;;4983192;28;20681;-89
2021/05/29 07:31:37;;;;;;;2.47;2.08;;;16.80;40.10;;;;;;4997142;28;20292;-91
2021/05/29 07:34:04;;;;;;;2.83;2.35;;;17.00;42.10;;;;;;5006852;28;20223;-90
2021/05/29 07:36:30;;;;;;;4.40;2.60;;;16.90;40.50;;;;;;5013723;28;20197;-89
2021/05/29 07:38:57;;;;;;;3.22;2.42;;;16.90;40.50;;;;;;5029043;28;20231;-90
2021/05/29 07:41:23;;;;;;;6.95;2.55;;;17.20;41.80;;;;;;5013963;28;20203;-87
2021/05/29 07:43:51;;;;;;;3.58;2.25;;;17.30;39.30;;;;;;5076543;28;20232;-86
2021/05/29 07:46:19;;;;;;;2.95;2.53;;;17.50;39.00;;;;;;5020276;28;20257;-87
2021/05/29 07:48:45;;;;;;;4.47;2.50;;;17.30;38.20;;;;;;5066491;28;20240;-87
2021/05/29 07:51:12;;;;;;;5.60;2.70;;;17.30;38.10;;;;;;5006282;28;20200;-87
2021/05/29 07:53:45;;;;;;;3.15;2.20;;;17.40;39.00;;;;;;5005472;28;20291;-89
2021/05/29 07:56:19;;;;;;;2.67;2.20;;;17.50;37.30;;;;;;5078797;28;20210;-88
2021/05/29 07:58:47;;;;;;;2.70;2.50;;;17.70;37.50;;;;;;5018061;28;20235;-87
2021/05/29 08:01:16;;;;;;;2.25;2.05;;;17.90;35.50;;;;;;5011904;28;20218;-87
2021/05/29 08:03:48;;;;;;;4.47;2.60;;;18.30;35.40;;;;;;5023051;28;20241;-87
2021/05/29 08:06:16;;;;;;;3.65;2.00;;;18.50;32.90;;;;;;5035983;28;20200;-88
2021/05/29 08:08:44;;;;;;;2.42;2.22;;;18.30;32.00;;;;;;5024960;28;20228;-88
2021/05/29 08:11:17;;;;;;;3.03;2.30;;;18.50;34.60;;;;;;5010201;28;20223;-88
2021/05/29 08:13:43;;;;;;;3.63;2.20;;;18.30;33.10;;;;;;5023922;28;20625;-88
2021/05/29 08:16:10;;;;;;;3.78;2.15;;;18.00;33.00;;;;;;5008519;28;20291;-87
2021/05/29 08:18:37;;;;;;;2.75;2.28;;;17.90;34.80;;;;;;5009204;28;20243;-87
2021/05/29 08:21:04;;;;;;;2.53;2.33;;;18.00;35.30;;;;;;5016949;28;20192;-89
2021/05/29 08:23:30;;;;;;;3.20;2.10;;;18.40;35.40;;;;;;5003954;28;20610;-88
2021/05/29 08:25:57;;;;;;;4.32;2.05;;;18.90;31.10;;;;;;5002182;28;20208;-87
2021/05/29 08:28:23;;;;;;;2.28;2.10;;;19.80;29.90;;;;;;4996466;28;20227;-85
2021/05/29 08:30:50;;;;;;;2.80;1.80;;;20.60;29.80;;;;;;4995947;28;20212;-87
2021/05/29 08:33:16;;;;;;;2.72;2.22;;;23.30;23.10;;;;;;4993920;28;20219;-87
2021/05/29 08:35:43;;;;;;;4.65;2.20;;;24.30;21.90;;;;;;4994337;28;20203;-87
2021/05/29 08:38:10;;;;;;;2.45;2.13;;;25.50;18.90;;;;;;4991001;28;20223;-87
2021/05/29 08:40:36;;;;;;;2.65;2.42;;;26.50;18.10;;;;;;4991665;28;20226;-87
2021/05/29 08:43:03;;;;;;;2.70;2.50;;;27.10;16.70;;;;;;4994103;28;20227;-88
2021/05/29 08:45:30;;;;;;;2.47;2.15;;;24.50;18.00;;;;;;4991311;28;20199;-87
2021/05/29 08:47:58;;;;;;;2.30;2.10;;;26.10;19.00;;;;;;4999159;28;20222;-87
2021/05/29 08:50:25;;;;;;;3.00;2.35;;;24.40;18.90;;;;;;4995120;28;20210;-87
2021/05/29 08:52:52;;;;;;;2.50;2.30;;;25.80;17.90;;;;;;4990391;28;20226;-87
2021/05/29 08:55:20;;;;;;;3.50;2.28;;;26.50;16.80;;;;;;4993896;28;20202;-87
2021/05/29 08:57:56;;;;;;;3.25;2.35;;;26.10;18.00;;;;;;4988804;28;20238;-85
2021/05/29 09:00:25;;;;;;;2.90;2.53;;;26.10;15.90;;;;;;5036818;28;20206;-86
2021/05/29 09:02:59;;;;;;;3.33;2.50;;;25.10;17.80;;;;;;4994332;28;20241;-86
2021/05/29 09:05:38;;;;;;;2.40;2.20;;;25.10;16.70;;;;;;5017745;28;20200;-87
2021/05/29 09:08:07;;;;;;;3.85;2.30;;;24.80;18.30;;;;;;4983457;28;20234;-85
2021/05/29 09:10:36;;;;;;;4.20;2.80;;;25.20;18.60;;;;;;5000871;28;20597;-89
2021/05/29 09:13:06;;;;;;;2.38;2.20;;;26.10;18.40;;;;;;4994532;28;20227;-88
2021/05/29 09:15:51;;;;;;;4.25;2.58;;;26.90;16.00;;;;;;4997432;28;20196;-86
2021/05/29 09:18:39;;;;;;;3.28;2.30;;;26.10;16.30;;;;;;4987174;28;20811;-86
2021/05/29 09:21:27;;;;;;;44.33;40.17;;;25.90;17.90;;;;;;4990487;28;20211;-86
2021/05/29 09:23:57;;;;;;;4.68;3.40;;;26.90;16.90;;;;;;4991507;28;20673;-86
2021/05/29 09:26:41;;;;;;;8.90;8.10;;;28.60;15.90;;;;;;4997423;28;20495;-86
2021/05/29 09:29:17;;;;;;;2.50;2.30;;;30.40;14.30;;;;;;4985933;28;20219;-87
2021/05/29 09:31:56;;;;;;;2.55;2.35;;;30.90;10.10;;;;;;4996933;28;20204;-87
2021/05/29 09:34:32;;;;;;;2.40;2.20;;;30.50;11.50;;;;;;4966632;28;20684;-90
2021/05/29 09:37:06;;;;;;;2.75;2.05;;;28.50;11.40;;;;;;4971681;28;20208;-89
2021/05/29 09:39:36;;;;;;;2.53;2.33;;;29.40;11.50;;;;;;4970572;28;20222;-88
2021/05/29 09:42:04;;;;;;;3.35;2.40;;;29.00;11.40;;;;;;4973354;28;20234;-89
2021/05/29 09:44:31;;;;;;;20.15;18.48;;;29.20;10.70;;;;;;4965619;28;20225;-89
2021/05/29 09:46:58;;;;;;;6.13;5.55;;;29.50;12.80;;;;;;4970163;28;20207;-90
2021/05/29 09:49:26;;;;;;;2.85;2.65;;;29.70;11.70;;;;;;4995719;28;20245;-90
2021/05/29 09:51:53;;;;;;;4.68;2.70;;;28.60;11.80;;;;;;4989520;28;20291;-89
2021/05/29 09:54:24;;;;;;;5.40;2.90;;;28.70;13.40;;;;;;4986321;28;20319;-91
2021/05/29 09:57:02;;;;;;;3.97;3.67;;;28.80;12.00;;;;;;4973725;28;20689;-89
2021/05/29 09:59:29;;;;;;;2.67;2.47;;;27.70;13.90;;;;;;4970146;28;20232;-89
2021/05/29 10:01:58;;;;;;;3.58;2.83;;;29.30;11.50;;;;;;4970535;28;20224;-89
2021/05/29 10:04:40;;;;;;;2.90;2.70;;;29.50;12.40;;;;;;4971585;28;20283;-89
2021/05/29 10:07:07;;;;;;;3.13;2.92;;;27.10;15.20;;;;;;4969757;28;20661;-89
2021/05/29 10:09:34;;;;;;;3.40;3.08;;;28.40;14.40;;;;;;4970669;28;20319;-88
2021/05/29 10:12:04;;;;;;;4.75;3.10;;;28.60;16.00;;;;;;4963279;28;20199;-89
2021/05/29 10:14:33;;;;;;;3.50;3.20;;;29.20;13.40;;;;;;4979348;28;20242;-90
2021/05/29 10:17:02;;;;;;;3.20;2.90;;;28.40;14.30;;;;;;4968664;28;20211;-87
2021/05/29 10:19:30;;;;;;;8.98;8.07;;;27.30;15.30;;;;;;4980574;28;20585;-87
2021/05/29 10:21:56;;;;;;;11.57;10.52;;;27.10;16.60;;;;;;4968557;28;20289;-86
2021/05/29 10:24:25;;;;;;;23.10;20.88;;;26.50;16.10;;;;;;4980436;28;20596;-87
2021/05/29 10:26:54;;;;;;;8.18;7.47;;;25.90;19.00;;;;;;4974157;28;20242;-86
2021/05/29 10:29:25;;;;;;;21.10;19.35;;;26.80;16.40;;;;;;4988484;28;20219;-86
2021/05/29 10:32:07;;;;;;;6.47;5.88;;;26.60;16.30;;;;;;5005856;28;20294;-85
2021/05/29 10:34:56;;;;;;;5.55;3.17;;;26.40;17.30;;;;;;4988633;28;20836;-88
2021/05/29 10:37:37;;;;;;;4.03;2.45;;;25.50;17.20;;;;;;4981364;28;20200;-88
2021/05/29 10:40:18;;;;;;;3.78;3.47;;;24.70;19.80;;;;;;4988679;28;20219;-86
2021/05/29 10:42:46;;;;;;;27.92;25.13;;;24.50;22.30;;;;;;4987278;28;20243;-85
2021/05/29 10:45:17;;;;;;;5.80;5.28;;;24.70;20.60;;;;;;4994314;28;20291;-85
2021/05/29 10:48:02;;;;;;;6.18;5.57;;;25.50;18.90;;;;;;4987946;28;20235;-85
2021/05/29 10:50:58;;;;;;;5.90;5.40;;;26.70;17.70;;;;;;4988283;28;20339;-85
2021/05/29 10:53:47;;;;;;;3.03;2.75;;;27.00;15.80;;;;;;4986659;28;20772;-86
2021/05/29 10:56:36;;;;;;;4.30;3.90;;;26.40;16.60;;;;;;5013341;28;20275;-85
2021/05/29 10:59:14;;;;;;;9.23;8.35;;;25.70;18.40;;;;;;4981678;28;20223;-86
2021/05/29 11:02:08;;;;;;;3.03;2.80;;;26.10;18.00;;;;;;4985147;28;20210;-86
2021/05/29 11:04:35;;;;;;;2.65;2.45;;;25.80;17.00;;;;;;4989853;28;20718;-86
2021/05/29 11:07:27;;;;;;;5.97;2.45;;;24.00;19.70;;;;;;4993257;28;20651;-85
2021/05/29 11:09:57;;;;;;;2.97;2.38;;;22.50;20.80;;;;;;4980747;28;20220;-85
2021/05/29 11:12:51;;;;;;;3.22;2.53;;;21.50;21.70;;;;;;4991803;28;20230;-85
2021/05/29 11:15:20;;;;;;;5.20;3.05;;;21.20;23.30;;;;;;4991426;28;20203;-87
2021/05/29 11:18:07;;;;;;;2.53;2.33;;;21.40;24.40;;;;;;5001035;28;20295;-89
2021/05/29 11:21:01;;;;;;;2.63;2.42;;;21.40;25.70;;;;;;5002633;28;20196;-86
2021/05/29 11:23:28;;;;;;;2.50;2.25;;;21.10;24.00;;;;;;5020993;28;20224;-88
2021/05/29 11:25:54;;;;;;;2.20;2.00;;;21.50;25.10;;;;;;5011597;28;20204;-87
2021/05/29 11:28:21;;;;;;;3.85;2.10;;;21.80;26.90;;;;;;5012149;28;20288;-88
2021/05/29 11:30:48;;;;;;;5.75;2.70;;;22.30;23.20;;;;;;5024917;28;20296;-88
2021/05/29 11:33:16;;;;;;;6.80;3.00;;;22.50;24.10;;;;;;5009617;28;20306;-86
2021/05/29 11:35:45;;;;;;;3.50;2.28;;;21.80;24.10;;;;;;5005135;28;20200;-87
2021/05/29 11:38:16;;;;;;;5.68;2.67;;;21.00;25.90;;;;;;5009463;28;20231;-89
2021/05/29 11:40:48;;;;;;;3.30;2.42;;;20.50;27.10;;;;;;4997070;28;20214;-89
2021/05/29 11:43:16;;;;;;;2.30;2.10;;;19.80;27.90;;;;;;5015445;28;20235;-90
2021/05/29 11:45:43;;;;;;;4.82;1.80;;;19.30;29.40;;;;;;5006081;28;20210;-89
2021/05/29 11:48:15;;;;;;;3.28;1.92;;;19.00;31.20;;;;;;5047019;28;20228;-89
2021/05/29 11:51:08;;;;;;;4.45;1.98;;;18.90;31.20;;;;;;5005048;28;20208;-90
2021/05/29 11:53:29;;;;;;;2.88;2.25;;;18.80;31.00;;;;;;4997272;28;20283;-89
2021/05/29 11:55:57;;;;;;;2.50;1.92;;;19.00;28.80;;;;;;5026394;28;20204;-89
2021/05/29 11:58:24;;;;;;;5.53;1.63;;;19.70;30.00;;;;;;5032498;28;20217;-88
2021/05/29 12:00:58;;;;;;;2.65;1.75;;;20.10;27.10;;;;;;5022179;28;20216;-85
2021/05/29 12:03:44;;;;;;;2.63;1.75;;;20.00;26.90;;;;;;5019718;28;20724;-90
2021/05/29 12:06:13;;;;;;;2.72;1.92;;;19.80;26.10;;;;;;5022894;28;20241;-89
2021/05/29 12:09:02;;;;;;;6.05;2.72;;;19.20;26.00;;;;;;5006322;28;20262;-89
2021/05/29 12:11:30;;;;;;;1.92;1.63;;;19.00;25.50;;;;;;4989725;28;20204;-89
2021/05/29 12:14:11;;;;;;;2.85;1.90;;;19.30;29.30;;;;;;5025276;28;20287;-88
2021/05/29 12:16:46;;;;;;;2.67;1.80;;;19.70;26.40;;;;;;5033821;28;20299;-89
2021/05/29 12:19:34;;;;;;;3.60;2.70;;;19.90;28.50;;;;;;5004291;28;20255;-86
2021/05/29 12:22:04;;;;;;;13.00;6.70;;;20.20;25.80;;;;;;4996987;28;20601;-88
2021/05/29 12:24:39;;;;;;;14.80;6.68;;;20.40;28.10;;;;;;5006924;28;20236;-90
2021/05/29 12:27:07;;;;;;;5.53;3.17;;;20.40;29.00;;;;;;5020023;28;20619;-90
2021/05/29 12:29:35;;;;;;;2.38;1.83;;;20.30;26.40;;;;;;5004249;28;20597;-89
2021/05/29 12:32:02;;;;;;;3.88;1.80;;;20.10;26.30;;;;;;5002547;28;20207;-89
2021/05/29 12:34:44;;;;;;;3.03;1.75;;;19.80;26.60;;;;;;5006472;28;20227;-89
2021/05/29 12:37:11;;;;;;;2.38;1.60;;;19.60;27.00;;;;;;5004149;28;20620;-86
2021/05/29 12:39:57;;;;;;;1.83;1.60;;;20.00;27.70;;;;;;5005751;28;20255;-87
2021/05/29 12:42:29;;;;;;;1.95;1.50;;;19.90;25.70;;;;;;5005522;28;20216;-88
2021/05/29 12:44:57;;;;;;;1.60;1.50;;;19.80;24.60;;;;;;5014295;28;20297;-89
2021/05/29 12:47:27;;;;;;;3.42;1.90;;;19.60;27.80;;;;;;5065236;28;20202;-88
2021/05/29 12:49:54;;;;;;;2.22;1.60;;;19.60;26.10;;;;;;5050243;28;20358;-87
2021/05/29 12:52:27;;;;;;;1.88;1.40;;;19.60;26.40;;;;;;5001355;28;20433;-90
2021/05/29 12:54:55;;;;;;;2.35;1.85;;;19.50;26.70;;;;;;5000728;28;20228;-88
2021/05/29 12:57:23;;;;;;;1.35;1.27;;;19.80;26.80;;;;;;5002954;28;20204;-89
2021/05/29 12:59:50;;;;;;;3.58;1.45;;;20.00;24.90;;;;;;5000153;28;20216;-88
2021/05/29 13:02:38;;;;;;;1.52;1.42;;;19.90;25.40;;;;;;5001770;28;20228;-89
2021/05/29 13:08:00;;;;;;;5.47;1.70;;;20.20;27.20;;;;;;4991475;28;20238;-89
2021/05/29 13:10:39;;;;;;;1.70;1.60;;;20.10;28.00;;;;;;4992610;28;20219;-89
2021/05/29 13:13:11;;;;;;;2.28;1.70;;;19.90;26.70;;;;;;5001638;28;20230;-88
2021/05/29 13:15:38;;;;;;;4.80;2.05;;;19.50;28.30;;;;;;4992142;28;20216;-89
2021/05/29 13:18:10;;;;;;;4.45;2.17;;;19.20;29.30;;;;;;4992610;28;20228;-89
2021/05/29 13:20:38;;;;;;;2.72;1.70;;;19.10;29.60;;;;;;4996560;28;20239;-91
2021/05/29 13:23:13;;;;;;;4.00;1.85;;;19.10;31.20;;;;;;4987897;28;20303;-94
2021/05/29 13:25:44;;;;;;;2.35;1.50;;;19.20;27.10;;;;;;4982644;28;20203;-89
2021/05/29 13:28:14;;;;;;;1.83;1.73;;;19.40;26.90;;;;;;5034560;28;20224;-90
2021/05/29 13:30:46;;;;;;;2.35;1.60;;;19.40;28.50;;;;;;5000622;28;20235;-89
2021/05/29 13:33:15;;;;;;;1.92;1.70;;;19.40;30.20;;;;;;4993816;28;20722;-91
2021/05/29 13:35:53;;;;;;;1.92;1.80;;;19.30;28.90;;;;;;5041254;28;20623;-89
2021/05/29 13:38:21;;;;;;;1.90;1.70;;;19.20;29.90;;;;;;4994387;28;20220;-91
2021/05/29 13:40:55;;;;;;;3.08;1.90;;;19.20;30.90;;;;;;4992494;28;20620;-89
2021/05/29 13:43:21;;;;;;;1.40;1.30;;;19.40;30.00;;;;;;4990922;28;20243;-88
2021/05/29 13:45:49;;;;;;;2.08;1.60;;;19.10;28.60;;;;;;5001693;28;20277;-88
2021/05/29 13:48:16;;;;;;;3.40;1.52;;;19.20;27.60;;;;;;4991424;28;20253;-89
2021/05/29 13:50:43;;;;;;;1.85;1.63;;;19.50;27.70;;;;;;4991262;28;20212;-89
2021/05/29 13:53:10;;;;;;;1.85;1.40;;;20.00;25.40;;;;;;4991274;28;20232;-88
2021/05/29 13:55:41;;;;;;;2.78;1.60;;;20.00;25.10;;;;;;4996031;28;20222;-89
2021/05/29 13:58:13;;;;;;;1.88;1.40;;;19.60;23.90;;;;;;5009207;28;20277;-88
2021/05/29 14:00:50;;;;;;;;;;;;;;;;;;;;;
2021/05/29 14:03:42;;;;;;;1.88;1.50;;;19.20;26.70;;;;;;4976736;28;20243;-88
2021/05/29 14:06:08;;;;;;;2.75;1.58;;;19.10;26.30;;;;;;5009502;28;20207;-87
2021/05/29 14:08:36;;;;;;;3.17;1.60;;;19.00;28.60;;;;;;4997715;28;20232;-87
2021/05/29 14:11:12;;;;;;;3.70;1.45;;;18.80;30.10;;;;;;5000480;28;20208;-88
2021/05/29 14:13:40;;;;;;;5.47;4.95;;;18.80;31.00;;;;;;5043873;28;20244;-88
2021/05/29 14:16:07;;;;;;;1.80;1.58;;;18.80;31.00;;;;;;4998246;28;20208;-88
2021/05/29 14:18:34;;;;;;;2.05;1.77;;;18.80;31.00;;;;;;4999605;28;20228;-88
2021/05/29 14:21:05;;;;;;;4.15;1.77;;;18.90;31.10;;;;;;4998503;28;20275;-89
2021/05/29 14:23:40;;;;;;;2.22;1.60;;;18.90;31.10;;;;;;4986266;28;20288;-88
2021/05/29 14:26:09;;;;;;;1.50;1.30;;;18.90;31.10;;;;;;5002448;28;20290;-91
2021/05/29 14:28:36;;;;;;;1.40;1.30;;;19.00;26.50;;;;;;5009127;28;20318;-89
2021/05/29 14:31:05;;;;;;;1.40;1.20;;;18.80;27.00;;;;;;5045442;28;20271;-87
2021/05/29 14:33:32;;;;;;;1.58;1.35;;;18.90;25.50;;;;;;5005080;28;20698;-89
2021/05/29 14:36:00;;;;;;;1.30;1.20;;;18.80;24.40;;;;;;4990694;28;20208;-88
2021/05/29 14:38:33;;;;;;;23.42;20.90;;;18.80;25.30;;;;;;5065690;28;20226;-88
2021/05/29 14:41:00;;;;;;;1.85;1.30;;;18.90;26.10;;;;;;5004105;28;20211;-87
2021/05/29 14:43:28;;;;;;;2.20;2.00;;;19.20;27.40;;;;;;5001369;28;20224;-88
2021/05/29 14:45:54;;;;;;;3.13;2.15;;;19.50;25.30;;;;;;5004252;28;20215;-88
2021/05/29 14:48:21;;;;;;;3.85;3.17;;;19.60;25.90;;;;;;5003521;28;20306;-90
2021/05/29 14:51:15;;;;;;;1.58;1.30;;;19.60;26.70;;;;;;5076104;28;20208;-87
2021/05/29 14:53:37;;;;;;;6.10;4.68;;;19.70;28.20;;;;;;5061002;28;20240;-88
2021/05/29 14:56:04;;;;;;;1.58;1.48;;;19.40;27.60;;;;;;5095735;28;20204;-87
2021/05/29 14:58:31;;;;;;;2.00;1.75;;;19.00;29.80;;;;;;5009015;28;20232;-87
2021/05/29 15:01:35;;;;;;;3.58;1.60;;;18.80;31.00;;;;;;5009348;28;20240;-87
2021/05/29 15:04:05;;;;;;;3.45;3.10;;;18.60;30.90;;;;;;5009050;28;20227;-88
2021/05/29 15:06:31;;;;;;;3.65;2.30;;;18.50;30.80;;;;;;5058240;28;20204;-88
2021/05/29 15:08:58;;;;;;;1.98;1.45;;;18.70;31.00;;;;;;5031455;28;20278;-88
2021/05/29 15:11:25;;;;;;;1.77;1.63;;;18.70;31.00;;;;;;5010105;28;20267;-87
2021/05/29 15:13:52;;;;;;;1.60;1.50;;;18.50;30.80;;;;;;5007603;28;20271;-88
2021/05/29 15:16:19;;;;;;;1.38;1.27;;;18.50;30.90;;;;;;4989469;28;20201;-87
2021/05/29 15:18:45;;;;;;;4.35;3.95;;;18.50;30.80;;;;;;5000959;28;20235;-87
2021/05/29 15:21:14;;;;;;;1.60;1.35;;;18.30;30.70;;;;;;5009431;28;20650;-87
2021/05/29 15:23:43;;;;;;;1.80;1.40;;;18.30;30.70;;;;;;5008530;28;20236;-88
2021/05/29 15:26:11;;;;;;;1.17;1.17;;;18.30;30.60;;;;;;5008599;28;20227;-87
2021/05/29 15:28:38;;;;;;;1.98;1.42;;;18.40;30.70;;;;;;5057105;28;20633;-87
2021/05/29 15:31:07;;;;;;;1.83;1.30;;;18.60;30.90;;;;;;5072358;28;20220;-88
2021/05/29 15:33:33;;;;;;;1.30;1.20;;;18.70;29.90;;;;;;5009564;28;20204;-87
2021/05/29 15:36:00;;;;;;;1.52;1.42;;;18.70;31.00;;;;;;5015221;28;20263;-88
2021/05/29 15:38:26;;;;;;;1.60;1.45;;;18.50;30.80;;;;;;5015680;28;20204;-89
2021/05/29 15:40:53;;;;;;;1.70;1.60;;;18.40;30.80;;;;;;5009251;28;20235;-87
2021/05/29 15:43:20;;;;;;;1.42;1.30;;;18.40;30.70;;;;;;5030515;28;20230;-87
2021/05/29 15:45:46;;;;;;;2.78;1.40;;;18.20;30.60;;;;;;5042364;28;20207;-88
2021/05/29 15:48:13;;;;;;;1.60;1.33;;;18.00;30.40;;;;;;5005382;28;20250;-90
2021/05/29 15:53:21;;;;;;;1.25;1.15;;;17.90;30.30;;;;;;5004643;28;20240;-92
2021/05/29 15:55:47;;;;;;;1.00;1.00;;;17.90;28.70;;;;;;5005609;28;20200;-90
2021/05/29 15:58:14;;;;;;;1.40;1.30;;;18.10;29.40;;;;;;5007335;28;20228;-87
2021/05/29 16:00:46;;;;;;;1.40;1.30;;;18.50;27.70;;;;;;5025235;28;20196;-87
2021/05/29 16:03:14;;;;;;;1.30;1.20;;;18.50;28.10;;;;;;5057657;28;20232;-87
2021/05/29 16:05:40;;;;;;;3.15;1.63;;;18.20;30.10;;;;;;5008144;28;20669;-88
2021/05/29 16:08:07;;;;;;;1.52;1.42;;;17.80;30.20;;;;;;5008728;28;20239;-88
2021/05/29 16:10:33;;;;;;;2.25;1.30;;;17.50;30.00;;;;;;5008861;28;20262;-89
2021/05/29 16:13:00;;;;;;;1.30;1.20;;;17.40;30.80;;;;;;5007972;28;20314;-88
2021/05/29 16:15:27;;;;;;;1.63;1.50;;;17.20;29.70;;;;;;5008215;28;20263;-88
2021/05/29 16:17:54;;;;;;;1.20;1.10;;;17.10;30.10;;;;;;5027523;28;20229;-87
2021/05/29 16:20:22;;;;;;;2.88;1.30;;;17.20;31.90;;;;;;5044945;28;20212;-87
2021/05/29 16:22:49;;;;;;;1.45;1.35;;;17.10;32.10;;;;;;5013033;28;20650;-88
2021/05/29 16:25:16;;;;;;;1.50;1.40;;;17.20;32.50;;;;;;5012579;28;20200;-87
2021/05/29 16:27:43;;;;;;;2.55;1.45;;;17.30;32.50;;;;;;5007155;28;20272;-87
2021/05/29 16:30:10;;;;;;;2.53;1.38;;;17.50;32.40;;;;;;5008018;28;20235;-92
2021/05/29 16:32:39;;;;;;;1.85;1.75;;;17.60;31.60;;;;;;4993248;28;20219;-88
2021/05/29 16:35:06;;;;;;;1.60;1.50;;;17.70;30.40;;;;;;5008563;28;20260;-88
2021/05/29 16:37:34;;;;;;;2.85;1.50;;;17.70;31.10;;;;;;5020719;28;20701;-88